sensor_id;sensor_type;location;lat;lon;timestamp;P1;durP1;ratioP1;P2;durP2;ratioP2
77802;SDS011;66993;48.256;16.422;2023-09-19T00:03:38;1.8;;;0.9;;
77802;SDS011;66993;48.256;16.422;2023-09-19T00:08:39;2.1;;;1.1;;
77802;SDS011;66993;48.256;16.422;2023-09-19T00:13:40;2.4;;;1.3;;
77802;SDS011;66993;48.256;16.422;2023-09-19T00:18:42;3.0;;;1.4;;
77802;SDS011;66993;48.256;16.422;2023-09-19T00:23:43;2.3;;;1.5;;
77802;SDS011;66993;48.256;16.422;2023-09-19T00:28:44;2.9;;;1.7;;
77802;SDS011;66993;48.256;16.422;2023-09-19T00:33:45;6.2;;;1.8;;
77802;SDS011;66993;48.256;16.422;2023-09-19T00:38:47;3.4;;;1.5;;
77802;SDS011;66993;48.256;16.422;2023-09-19T00:43:48;4.2;;;1.8;;
77802;SDS011;66993;48.256;16.422;2023-09-19T00:48:50;3.6;;;1.6;;
77802;SDS011;66993;48.256;16.422;2023-09-19T00:53:51;3.6;;;1.5;;
77802;SDS011;66993;48.256;16.422;2023-09-19T00:58:52;2.6;;;1.4;;
77802;SDS011;66993;48.256;16.422;2023-09-19T01:03:53;2.2;;;1.4;;
77802;SDS011;66993;48.256;16.422;2023-09-19T01:08:54;2.6;;;1.4;;
77802;SDS011;66993;48.256;16.422;2023-09-19T01:13:57;2.6;;;1.1;;
77802;SDS011;66993;48.256;16.422;2023-09-19T01:18:59;2.6;;;1.1;;
77802;SDS011;66993;48.256;16.422;2023-09-19T01:29:02;2.6;;;1.3;;
77802;SDS011;66993;48.256;16.422;2023-09-19T01:34:01;2.7;;;1.4;;
77802;SDS011;66993;48.256;16.422;2023-09-19T01:39:03;1.3;;;1.0;;
77802;SDS011;66993;48.256;16.422;2023-09-19T01:44:04;1.9;;;1.2;;
77802;SDS011;66993;48.256;16.422;2023-09-19T01:49:07;3.2;;;1.2;;
77802;SDS011;66993;48.256;16.422;2023-09-19T01:54:08;3.0;;;1.4;;
77802;SDS011;66993;48.256;16.422;2023-09-19T01:59:08;2.6;;;1.2;;
77802;SDS011;66993;48.256;16.422;2023-09-19T02:04:09;3.7;;;1.4;;
77802;SDS011;66993;48.256;16.422;2023-09-19T02:09:10;2.2;;;1.1;;
77802;SDS011;66993;48.256;16.422;2023-09-19T02:14:11;2.8;;;1.1;;
77802;SDS011;66993;48.256;16.422;2023-09-19T02:19:13;3.2;;;1.3;;
77802;SDS011;66993;48.256;16.422;2023-09-19T02:24:14;3.1;;;1.5;;
77802;SDS011;66993;48.256;16.422;2023-09-19T02:29:15;2.4;;;1.2;;
77802;SDS011;66993;48.256;16.422;2023-09-19T02:34:16;4.2;;;1.2;;
77802;SDS011;66993;48.256;16.422;2023-09-19T02:39:18;2.3;;;1.1;;
77802;SDS011;66993;48.256;16.422;2023-09-19T02:44:19;2.7;;;1.3;;
77802;SDS011;66993;48.256;16.422;2023-09-19T02:49:20;9.4;;;1.5;;
77802;SDS011;66993;48.256;16.422;2023-09-19T02:54:22;3.0;;;1.3;;
77802;SDS011;66993;48.256;16.422;2023-09-19T02:59:23;3.0;;;1.6;;
77802;SDS011;66993;48.256;16.422;2023-09-19T03:04:24;3.0;;;1.2;;
77802;SDS011;66993;48.256;16.422;2023-09-19T03:09:25;5.6;;;2.0;;
77802;SDS011;66993;48.256;16.422;2023-09-19T03:14:27;4.0;;;1.5;;
77802;SDS011;66993;48.256;16.422;2023-09-19T03:19:29;2.9;;;1.4;;
77802;SDS011;66993;48.256;16.422;2023-09-19T03:24:29;3.0;;;1.4;;
77802;SDS011;66993;48.256;16.422;2023-09-19T03:29:31;3.2;;;1.4;;
77802;SDS011;66993;48.256;16.422;2023-09-19T03:34:32;4.7;;;1.6;;
77802;SDS011;66993;48.256;16.422;2023-09-19T03:39:34;3.1;;;1.5;;
77802;SDS011;66993;48.256;16.422;2023-09-19T03:44:35;2.7;;;1.4;;
77802;SDS011;66993;48.256;16.422;2023-09-19T03:49:36;3.6;;;1.8;;
77802;SDS011;66993;48.256;16.422;2023-09-19T03:54:37;5.3;;;1.5;;
77802;SDS011;66993;48.256;16.422;2023-09-19T03:59:40;4.4;;;2.1;;
77802;SDS011;66993;48.256;16.422;2023-09-19T04:04:40;4.8;;;2.3;;
77802;SDS011;66993;48.256;16.422;2023-09-19T04:09:42;3.4;;;1.7;;
77802;SDS011;66993;48.256;16.422;2023-09-19T04:14:43;5.1;;;2.0;;
77802;SDS011;66993;48.256;16.422;2023-09-19T04:19:44;5.5;;;2.0;;
77802;SDS011;66993;48.256;16.422;2023-09-19T04:24:45;4.1;;;2.0;;
77802;SDS011;66993;48.256;16.422;2023-09-19T04:29:47;4.6;;;2.1;;
77802;SDS011;66993;48.256;16.422;2023-09-19T04:34:48;3.2;;;1.8;;
77802;SDS011;66993;48.256;16.422;2023-09-19T04:39:49;2.7;;;1.6;;
77802;SDS011;66993;48.256;16.422;2023-09-19T04:44:51;3.4;;;1.7;;
77802;SDS011;66993;48.256;16.422;2023-09-19T04:49:52;3.7;;;1.9;;
77802;SDS011;66993;48.256;16.422;2023-09-19T04:54:53;4.1;;;2.0;;
77802;SDS011;66993;48.256;16.422;2023-09-19T04:59:55;4.7;;;1.8;;
77802;SDS011;66993;48.256;16.422;2023-09-19T05:04:56;3.8;;;1.9;;
77802;SDS011;66993;48.256;16.422;2023-09-19T05:09:58;3.3;;;2.0;;
77802;SDS011;66993;48.256;16.422;2023-09-19T05:14:58;5.0;;;2.2;;
77802;SDS011;66993;48.256;16.422;2023-09-19T05:20:00;5.7;;;2.6;;
77802;SDS011;66993;48.256;16.422;2023-09-19T05:25:01;5.2;;;2.6;;
77802;SDS011;66993;48.256;16.422;2023-09-19T05:30:03;6.2;;;3.3;;
77802;SDS011;66993;48.256;16.422;2023-09-19T05:35:04;7.6;;;3.7;;
77802;SDS011;66993;48.256;16.422;2023-09-19T05:40:06;9.2;;;4.4;;
77802;SDS011;66993;48.256;16.422;2023-09-19T05:45:07;7.6;;;4.3;;
77802;SDS011;66993;48.256;16.422;2023-09-19T05:50:08;5.6;;;3.3;;
77802;SDS011;66993;48.256;16.422;2023-09-19T05:55:09;6.9;;;3.4;;
77802;SDS011;66993;48.256;16.422;2023-09-19T06:00:11;5.9;;;2.9;;
77802;SDS011;66993;48.256;16.422;2023-09-19T06:05:12;4.8;;;3.0;;
77802;SDS011;66993;48.256;16.422;2023-09-19T06:10:14;6.4;;;3.3;;
77802;SDS011;66993;48.256;16.422;2023-09-19T06:15:15;4.5;;;2.8;;
77802;SDS011;66993;48.256;16.422;2023-09-19T06:20:16;6.0;;;3.0;;
77802;SDS011;66993;48.256;16.422;2023-09-19T06:25:17;5.8;;;2.7;;
77802;SDS011;66993;48.256;16.422;2023-09-19T06:30:19;4.4;;;2.9;;
77802;SDS011;66993;48.256;16.422;2023-09-19T06:35:20;6.8;;;3.4;;
77802;SDS011;66993;48.256;16.422;2023-09-19T06:40:21;6.8;;;3.1;;
77802;SDS011;66993;48.256;16.422;2023-09-19T06:45:22;6.2;;;3.2;;
77802;SDS011;66993;48.256;16.422;2023-09-19T06:50:24;5.4;;;2.6;;
77802;SDS011;66993;48.256;16.422;2023-09-19T06:55:25;7.1;;;3.1;;
77802;SDS011;66993;48.256;16.422;2023-09-19T07:00:27;5.1;;;3.0;;
77802;SDS011;66993;48.256;16.422;2023-09-19T07:05:28;5.7;;;2.3;;
77802;SDS011;66993;48.256;16.422;2023-09-19T07:10:29;6.8;;;2.6;;
77802;SDS011;66993;48.256;16.422;2023-09-19T07:15:32;5.7;;;2.0;;
77802;SDS011;66993;48.256;16.422;2023-09-19T07:20:32;8.7;;;2.3;;
77802;SDS011;66993;48.256;16.422;2023-09-19T07:25:34;5.4;;;2.3;;
77802;SDS011;66993;48.256;16.422;2023-09-19T07:30:35;4.4;;;2.3;;
77802;SDS011;66993;48.256;16.422;2023-09-19T07:35:36;4.0;;;2.2;;
77802;SDS011;66993;48.256;16.422;2023-09-19T07:40:38;4.8;;;1.9;;
77802;SDS011;66993;48.256;16.422;2023-09-19T07:45:38;4.1;;;2.1;;
77802;SDS011;66993;48.256;16.422;2023-09-19T07:50:40;5.1;;;2.2;;
77802;SDS011;66993;48.256;16.422;2023-09-19T07:55:41;4.3;;;2.0;;
77802;SDS011;66993;48.256;16.422;2023-09-19T08:00:43;4.4;;;2.3;;
77802;SDS011;66993;48.256;16.422;2023-09-19T08:05:44;5.2;;;2.6;;
77802;SDS011;66993;48.256;16.422;2023-09-19T08:10:45;5.6;;;2.2;;
77802;SDS011;66993;48.256;16.422;2023-09-19T08:15:46;4.4;;;2.4;;
77802;SDS011;66993;48.256;16.422;2023-09-19T08:20:49;4.6;;;2.0;;
77802;SDS011;66993;48.256;16.422;2023-09-19T08:25:49;4.9;;;2.4;;
77802;SDS011;66993;48.256;16.422;2023-09-19T08:30:50;5.1;;;2.2;;
77802;SDS011;66993;48.256;16.422;2023-09-19T08:35:51;3.9;;;2.1;;
77802;SDS011;66993;48.256;16.422;2023-09-19T08:40:54;4.2;;;2.1;;
77802;SDS011;66993;48.256;16.422;2023-09-19T08:45:57;4.4;;;1.9;;
77802;SDS011;66993;48.256;16.422;2023-09-19T08:50:56;4.5;;;2.0;;
77802;SDS011;66993;48.256;16.422;2023-09-19T08:55:57;4.8;;;1.8;;
77802;SDS011;66993;48.256;16.422;2023-09-19T09:00:58;3.7;;;2.1;;
77802;SDS011;66993;48.256;16.422;2023-09-19T09:05:59;15.7;;;2.9;;
77802;SDS011;66993;48.256;16.422;2023-09-19T09:11:01;4.6;;;1.9;;
77802;SDS011;66993;48.256;16.422;2023-09-19T09:16:03;5.5;;;2.1;;
77802;SDS011;66993;48.256;16.422;2023-09-19T09:21:04;6.3;;;2.1;;
77802;SDS011;66993;48.256;16.422;2023-09-19T09:26:05;4.7;;;2.2;;
77802;SDS011;66993;48.256;16.422;2023-09-19T09:31:06;4.9;;;2.4;;
77802;SDS011;66993;48.256;16.422;2023-09-19T09:36:07;4.7;;;2.1;;
77802;SDS011;66993;48.256;16.422;2023-09-19T09:41:09;5.5;;;2.1;;
77802;SDS011;66993;48.256;16.422;2023-09-19T09:46:11;7.9;;;2.1;;
77802;SDS011;66993;48.256;16.422;2023-09-19T09:51:11;5.8;;;1.9;;
77802;SDS011;66993;48.256;16.422;2023-09-19T09:56:12;5.5;;;2.0;;
77802;SDS011;66993;48.256;16.422;2023-09-19T10:01:14;5.5;;;1.8;;
77802;SDS011;66993;48.256;16.422;2023-09-19T10:06:15;4.9;;;1.8;;
77802;SDS011;66993;48.256;16.422;2023-09-19T10:11:17;6.8;;;2.0;;
77802;SDS011;66993;48.256;16.422;2023-09-19T10:16:18;4.2;;;1.8;;
77802;SDS011;66993;48.256;16.422;2023-09-19T10:21:19;3.2;;;1.7;;
77802;SDS011;66993;48.256;16.422;2023-09-19T10:26:20;3.1;;;1.5;;
77802;SDS011;66993;48.256;16.422;2023-09-19T10:31:22;5.6;;;1.6;;
77802;SDS011;66993;48.256;16.422;2023-09-19T10:36:23;4.3;;;1.5;;
77802;SDS011;66993;48.256;16.422;2023-09-19T10:41:24;3.4;;;1.5;;
77802;SDS011;66993;48.256;16.422;2023-09-19T10:46:25;4.6;;;1.8;;
77802;SDS011;66993;48.256;16.422;2023-09-19T10:51:28;3.9;;;1.6;;
77802;SDS011;66993;48.256;16.422;2023-09-19T10:56:30;3.7;;;1.6;;
77802;SDS011;66993;48.256;16.422;2023-09-19T11:06:31;7.3;;;2.2;;
77802;SDS011;66993;48.256;16.422;2023-09-19T11:11:42;4.3;;;1.7;;
77802;SDS011;66993;48.256;16.422;2023-09-19T11:16:33;4.5;;;1.6;;
77802;SDS011;66993;48.256;16.422;2023-09-19T11:21:41;5.6;;;1.7;;
77802;SDS011;66993;48.256;16.422;2023-09-19T11:26:40;3.7;;;1.5;;
77802;SDS011;66993;48.256;16.422;2023-09-19T11:31:41;3.4;;;1.8;;
77802;SDS011;66993;48.256;16.422;2023-09-19T11:36:39;4.4;;;1.9;;
77802;SDS011;66993;48.256;16.422;2023-09-19T11:41:41;4.9;;;1.7;;
77802;SDS011;66993;48.256;16.422;2023-09-19T11:51:43;4.0;;;1.7;;
77802;SDS011;66993;48.256;16.422;2023-09-19T11:56:45;4.1;;;1.8;;
77802;SDS011;66993;48.256;16.422;2023-09-19T12:01:50;3.8;;;1.6;;
77802;SDS011;66993;48.256;16.422;2023-09-19T12:06:49;4.2;;;1.6;;
77802;SDS011;66993;48.256;16.422;2023-09-19T12:11:48;5.1;;;1.6;;
77802;SDS011;66993;48.256;16.422;2023-09-19T12:16:50;10.2;;;2.0;;
77802;SDS011;66993;48.256;16.422;2023-09-19T12:21:54;4.4;;;1.6;;
77802;SDS011;66993;48.256;16.422;2023-09-19T12:26:52;3.2;;;1.5;;
77802;SDS011;66993;48.256;16.422;2023-09-19T12:31:54;3.2;;;1.4;;
77802;SDS011;66993;48.256;16.422;2023-09-19T12:41:56;2.3;;;1.2;;
77802;SDS011;66993;48.256;16.422;2023-09-19T12:46:57;5.4;;;1.6;;
77802;SDS011;66993;48.256;16.422;2023-09-19T12:51:59;7.1;;;1.8;;
77802;SDS011;66993;48.256;16.422;2023-09-19T12:57:00;7.8;;;1.9;;
77802;SDS011;66993;48.256;16.422;2023-09-19T13:02:04;12.3;;;2.6;;
77802;SDS011;66993;48.256;16.422;2023-09-19T13:07:02;4.2;;;1.6;;
77802;SDS011;66993;48.256;16.422;2023-09-19T13:12:04;4.4;;;1.9;;
77802;SDS011;66993;48.256;16.422;2023-09-19T13:17:05;5.9;;;2.0;;
77802;SDS011;66993;48.256;16.422;2023-09-19T13:27:08;6.7;;;2.3;;
77802;SDS011;66993;48.256;16.422;2023-09-19T13:32:09;3.5;;;2.1;;
77802;SDS011;66993;48.256;16.422;2023-09-19T13:37:10;5.5;;;2.5;;
77802;SDS011;66993;48.256;16.422;2023-09-19T13:42:13;5.6;;;2.6;;
77802;SDS011;66993;48.256;16.422;2023-09-19T13:47:13;5.5;;;2.5;;
77802;SDS011;66993;48.256;16.422;2023-09-19T13:52:14;4.8;;;2.3;;
77802;SDS011;66993;48.256;16.422;2023-09-19T13:57:16;5.7;;;2.9;;
77802;SDS011;66993;48.256;16.422;2023-09-19T14:02:17;6.2;;;3.1;;
77802;SDS011;66993;48.256;16.422;2023-09-19T14:07:18;4.0;;;2.6;;
77802;SDS011;66993;48.256;16.422;2023-09-19T14:12:20;5.2;;;2.4;;
77802;SDS011;66993;48.256;16.422;2023-09-19T14:17:21;5.0;;;1.9;;
77802;SDS011;66993;48.256;16.422;2023-09-19T14:22:28;5.7;;;2.0;;
77802;SDS011;66993;48.256;16.422;2023-09-19T14:27:23;4.4;;;1.9;;
77802;SDS011;66993;48.256;16.422;2023-09-19T14:32:25;3.6;;;1.9;;
77802;SDS011;66993;48.256;16.422;2023-09-19T14:37:27;6.0;;;2.1;;
77802;SDS011;66993;48.256;16.422;2023-09-19T14:42:28;3.2;;;1.6;;
77802;SDS011;66993;48.256;16.422;2023-09-19T14:47:30;3.8;;;1.4;;
77802;SDS011;66993;48.256;16.422;2023-09-19T14:52:30;3.0;;;1.3;;
77802;SDS011;66993;48.256;16.422;2023-09-19T14:57:32;4.0;;;1.6;;
77802;SDS011;66993;48.256;16.422;2023-09-19T15:02:33;3.8;;;1.6;;
77802;SDS011;66993;48.256;16.422;2023-09-19T15:07:35;3.2;;;1.6;;
77802;SDS011;66993;48.256;16.422;2023-09-19T15:12:36;4.0;;;1.6;;
77802;SDS011;66993;48.256;16.422;2023-09-19T15:17:38;2.9;;;1.5;;
77802;SDS011;66993;48.256;16.422;2023-09-19T15:22:38;3.1;;;1.5;;
77802;SDS011;66993;48.256;16.422;2023-09-19T15:27:40;3.4;;;1.4;;
77802;SDS011;66993;48.256;16.422;2023-09-19T15:32:41;3.3;;;1.4;;
77802;SDS011;66993;48.256;16.422;2023-09-19T15:37:42;2.9;;;1.4;;
77802;SDS011;66993;48.256;16.422;2023-09-19T15:42:44;3.1;;;1.4;;
77802;SDS011;66993;48.256;16.422;2023-09-19T15:47:45;3.8;;;1.5;;
77802;SDS011;66993;48.256;16.422;2023-09-19T15:52:46;3.3;;;1.5;;
77802;SDS011;66993;48.256;16.422;2023-09-19T15:57:48;3.7;;;1.4;;
77802;SDS011;66993;48.256;16.422;2023-09-19T16:02:49;3.4;;;1.3;;
77802;SDS011;66993;48.256;16.422;2023-09-19T16:07:50;3.4;;;1.6;;
77802;SDS011;66993;48.256;16.422;2023-09-19T16:12:51;4.4;;;1.6;;
77802;SDS011;66993;48.256;16.422;2023-09-19T16:17:53;3.6;;;1.6;;
77802;SDS011;66993;48.256;16.422;2023-09-19T16:22:54;2.4;;;1.4;;
77802;SDS011;66993;48.256;16.422;2023-09-19T16:27:56;4.7;;;1.4;;
77802;SDS011;66993;48.256;16.422;2023-09-19T16:32:57;3.9;;;1.6;;
77802;SDS011;66993;48.256;16.422;2023-09-19T16:37:58;3.1;;;1.7;;
77802;SDS011;66993;48.256;16.422;2023-09-19T16:42:59;2.7;;;1.3;;
77802;SDS011;66993;48.256;16.422;2023-09-19T16:48:01;3.0;;;1.5;;
77802;SDS011;66993;48.256;16.422;2023-09-19T16:53:02;3.4;;;1.5;;
77802;SDS011;66993;48.256;16.422;2023-09-19T16:58:03;2.8;;;1.4;;
77802;SDS011;66993;48.256;16.422;2023-09-19T17:03:05;3.1;;;1.6;;
77802;SDS011;66993;48.256;16.422;2023-09-19T17:08:06;2.6;;;1.2;;
77802;SDS011;66993;48.256;16.422;2023-09-19T17:13:07;3.1;;;1.3;;
77802;SDS011;66993;48.256;16.422;2023-09-19T17:18:08;2.6;;;1.2;;
77802;SDS011;66993;48.256;16.422;2023-09-19T17:23:10;2.7;;;1.5;;
77802;SDS011;66993;48.256;16.422;2023-09-19T17:28:11;2.9;;;1.6;;
77802;SDS011;66993;48.256;16.422;2023-09-19T17:33:12;2.4;;;1.2;;
77802;SDS011;66993;48.256;16.422;2023-09-19T17:38:14;3.5;;;1.5;;
77802;SDS011;66993;48.256;16.422;2023-09-19T17:43:15;3.5;;;1.4;;
77802;SDS011;66993;48.256;16.422;2023-09-19T17:48:16;2.5;;;1.6;;
77802;SDS011;66993;48.256;16.422;2023-09-19T17:53:17;3.1;;;1.8;;
77802;SDS011;66993;48.256;16.422;2023-09-19T17:58:19;3.9;;;1.8;;
77802;SDS011;66993;48.256;16.422;2023-09-19T18:03:20;3.3;;;1.8;;
77802;SDS011;66993;48.256;16.422;2023-09-19T18:08:21;3.1;;;1.5;;
77802;SDS011;66993;48.256;16.422;2023-09-19T18:13:23;3.2;;;1.5;;
77802;SDS011;66993;48.256;16.422;2023-09-19T18:18:24;4.0;;;1.6;;
77802;SDS011;66993;48.256;16.422;2023-09-19T18:23:25;5.1;;;1.7;;
77802;SDS011;66993;48.256;16.422;2023-09-19T18:28:27;3.0;;;1.6;;
77802;SDS011;66993;48.256;16.422;2023-09-19T18:33:28;3.0;;;1.5;;
77802;SDS011;66993;48.256;16.422;2023-09-19T18:38:30;2.9;;;1.6;;
77802;SDS011;66993;48.256;16.422;2023-09-19T18:43:30;4.6;;;1.7;;
77802;SDS011;66993;48.256;16.422;2023-09-19T18:48:32;3.1;;;1.7;;
77802;SDS011;66993;48.256;16.422;2023-09-19T18:53:33;2.7;;;1.6;;
77802;SDS011;66993;48.256;16.422;2023-09-19T18:58:34;3.2;;;1.7;;
77802;SDS011;66993;48.256;16.422;2023-09-19T19:03:35;3.2;;;1.7;;
77802;SDS011;66993;48.256;16.422;2023-09-19T19:08:37;3.4;;;1.9;;
77802;SDS011;66993;48.256;16.422;2023-09-19T19:13:38;3.5;;;1.4;;
77802;SDS011;66993;48.256;16.422;2023-09-19T19:18:39;3.8;;;1.8;;
77802;SDS011;66993;48.256;16.422;2023-09-19T19:23:41;3.0;;;1.4;;
77802;SDS011;66993;48.256;16.422;2023-09-19T19:28:42;3.4;;;1.6;;
77802;SDS011;66993;48.256;16.422;2023-09-19T19:33:43;3.0;;;1.5;;
77802;SDS011;66993;48.256;16.422;2023-09-19T19:38:45;5.8;;;1.5;;
77802;SDS011;66993;48.256;16.422;2023-09-19T19:43:46;3.0;;;1.4;;
77802;SDS011;66993;48.256;16.422;2023-09-19T19:48:47;4.7;;;1.4;;
77802;SDS011;66993;48.256;16.422;2023-09-19T19:53:48;2.6;;;1.6;;
77802;SDS011;66993;48.256;16.422;2023-09-19T19:58:50;2.9;;;1.7;;
77802;SDS011;66993;48.256;16.422;2023-09-19T20:03:51;3.0;;;1.5;;
77802;SDS011;66993;48.256;16.422;2023-09-19T20:08:52;4.4;;;1.6;;
77802;SDS011;66993;48.256;16.422;2023-09-19T20:13:53;3.2;;;1.4;;
77802;SDS011;66993;48.256;16.422;2023-09-19T20:18:58;3.7;;;1.8;;
77802;SDS011;66993;48.256;16.422;2023-09-19T20:23:56;3.4;;;1.8;;
77802;SDS011;66993;48.256;16.422;2023-09-19T20:28:57;3.4;;;1.6;;
77802;SDS011;66993;48.256;16.422;2023-09-19T20:33:59;3.4;;;1.5;;
77802;SDS011;66993;48.256;16.422;2023-09-19T20:39:00;2.6;;;1.4;;
77802;SDS011;66993;48.256;16.422;2023-09-19T20:44:01;6.1;;;1.8;;
77802;SDS011;66993;48.256;16.422;2023-09-19T20:49:02;3.3;;;1.7;;
77802;SDS011;66993;48.256;16.422;2023-09-19T20:54:04;3.2;;;1.5;;
77802;SDS011;66993;48.256;16.422;2023-09-19T20:59:05;2.7;;;1.5;;
77802;SDS011;66993;48.256;16.422;2023-09-19T21:04:06;3.9;;;1.6;;
77802;SDS011;66993;48.256;16.422;2023-09-19T21:09:08;3.6;;;1.7;;
77802;SDS011;66993;48.256;16.422;2023-09-19T21:14:09;3.1;;;1.7;;
77802;SDS011;66993;48.256;16.422;2023-09-19T21:19:10;3.4;;;1.5;;
77802;SDS011;66993;48.256;16.422;2023-09-19T21:24:12;4.7;;;1.6;;
77802;SDS011;66993;48.256;16.422;2023-09-19T21:29:13;2.6;;;1.3;;
77802;SDS011;66993;48.256;16.422;2023-09-19T21:34:14;3.3;;;1.4;;
77802;SDS011;66993;48.256;16.422;2023-09-19T21:39:16;4.2;;;1.7;;
77802;SDS011;66993;48.256;16.422;2023-09-19T21:44:17;2.9;;;1.4;;
77802;SDS011;66993;48.256;16.422;2023-09-19T21:49:18;2.6;;;1.4;;
77802;SDS011;66993;48.256;16.422;2023-09-19T21:54:19;3.4;;;1.5;;
77802;SDS011;66993;48.256;16.422;2023-09-19T21:59:21;3.8;;;1.6;;
77802;SDS011;66993;48.256;16.422;2023-09-19T22:04:22;3.1;;;1.8;;
77802;SDS011;66993;48.256;16.422;2023-09-19T22:09:23;3.9;;;1.6;;
77802;SDS011;66993;48.256;16.422;2023-09-19T22:14:25;3.6;;;1.8;;
77802;SDS011;66993;48.256;16.422;2023-09-19T22:19:26;2.9;;;1.6;;
77802;SDS011;66993;48.256;16.422;2023-09-19T22:24:27;3.2;;;2.0;;
77802;SDS011;66993;48.256;16.422;2023-09-19T22:29:29;4.5;;;1.9;;
77802;SDS011;66993;48.256;16.422;2023-09-19T22:34:30;3.9;;;1.8;;
77802;SDS011;66993;48.256;16.422;2023-09-19T22:39:31;2.7;;;1.5;;
77802;SDS011;66993;48.256;16.422;2023-09-19T22:44:32;3.7;;;1.8;;
77802;SDS011;66993;48.256;16.422;2023-09-19T22:49:34;4.1;;;2.0;;
77802;SDS011;66993;48.256;16.422;2023-09-19T22:54:35;3.4;;;2.2;;
77802;SDS011;66993;48.256;16.422;2023-09-19T22:59:36;4.6;;;1.7;;
77802;SDS011;66993;48.256;16.422;2023-09-19T23:04:37;3.2;;;2.1;;
77802;SDS011;66993;48.256;16.422;2023-09-19T23:09:39;3.3;;;1.9;;
77802;SDS011;66993;48.256;16.422;2023-09-19T23:14:40;3.7;;;2.1;;
77802;SDS011;66993;48.256;16.422;2023-09-19T23:19:42;4.8;;;2.4;;
77802;SDS011;66993;48.256;16.422;2023-09-19T23:24:43;4.4;;;1.9;;
77802;SDS011;66993;48.256;16.422;2023-09-19T23:29:44;3.9;;;2.2;;
77802;SDS011;66993;48.256;16.422;2023-09-19T23:34:46;4.5;;;2.0;;
77802;SDS011;66993;48.256;16.422;2023-09-19T23:39:47;4.1;;;2.0;;
77802;SDS011;66993;48.256;16.422;2023-09-19T23:44:48;4.2;;;2.5;;
77802;SDS011;66993;48.256;16.422;2023-09-19T23:49:49;4.1;;;2.0;;
77802;SDS011;66993;48.256;16.422;2023-09-19T23:54:51;4.5;;;2.3;;
77802;SDS011;66993;48.256;16.422;2023-09-19T23:59:52;4.4;;;2.0;;
